Thumrait, Oman
Current Conditions -  °F | °C
As of 4:55 PM on Saturday 25 Oct 2014 (Local Time) from KQTH Reporting Station
Few Clouds Few Clouds  
Wind Chill: 90°   Ceiling: Unl
Heat Index: 90°   Visibility: 6mi
Dew Point: 35°   Wind: 8mph
Humidity: 14%   Direction: 40°NE
Pressure: 29.92"   Gusts: NA
Location:  17.63°N, 54.02°E
Report Text: KQTH 251255Z 04007KT 9999 FEW200 32/02 A2992 RMK AO2A SLP108 T03220015 $
Loading
Personal Weather Stations






























Interactive Weather Map
Tropical Storm Tracking
New forecast layout! Learn more

10-Day Weather Forecast

Advertisements
Track Severe Weather on mobile